createdAt,value
2024-05-09T00:02:57.542Z,2.20
2024-05-09T00:06:00.268Z,2.55
2024-05-09T00:09:03.070Z,2.27
2024-05-09T00:12:05.718Z,3.17
2024-05-09T00:15:08.715Z,3.10
2024-05-09T00:18:11.449Z,2.90
2024-05-09T00:21:14.179Z,2.55
2024-05-09T00:24:16.710Z,1.60
2024-05-09T00:27:19.335Z,2.92
2024-05-09T00:30:31.046Z,1.90
2024-05-09T00:33:37.433Z,2.17
2024-05-09T00:36:40.059Z,3.50
2024-05-09T00:39:42.637Z,3.23
2024-05-09T00:42:47.205Z,1.85
2024-05-09T00:45:49.778Z,1.95
2024-05-09T00:48:52.542Z,2.35
2024-05-09T00:51:56.324Z,2.25
2024-05-09T00:54:59.846Z,2.20
2024-05-09T00:58:03.376Z,3.75
2024-05-09T01:01:06.623Z,1.58
2024-05-09T01:04:09.443Z,2.47
2024-05-09T01:07:12.904Z,3.25
2024-05-09T01:10:21.216Z,1.67
2024-05-09T01:13:30.232Z,2.42
2024-05-09T01:16:33.264Z,2.10
2024-05-09T01:19:35.979Z,2.15
2024-05-09T01:22:39.370Z,1.95
2024-05-09T01:25:41.944Z,1.50
2024-05-09T01:28:44.581Z,2.85
2024-05-09T01:31:47.781Z,1.63
2024-05-09T01:34:50.487Z,2.10
2024-05-09T01:37:53.179Z,2.25
2024-05-09T01:40:55.891Z,1.60
2024-05-09T01:43:58.469Z,1.80
2024-05-09T01:47:01.076Z,1.60
2024-05-09T01:50:06.615Z,1.98
2024-05-09T01:53:13.854Z,2.05
2024-05-09T01:56:17.074Z,1.83
2024-05-09T01:59:20.460Z,1.95
2024-05-09T02:02:23.135Z,2.22
2024-05-09T02:05:25.816Z,1.30
2024-05-09T02:08:28.482Z,1.67
2024-05-09T02:11:31.110Z,1.40
2024-05-09T02:14:33.831Z,3.78
2024-05-09T02:17:36.561Z,1.83
2024-05-09T02:20:40.810Z,1.92
2024-05-09T02:23:43.603Z,1.30
2024-05-09T02:26:46.363Z,1.57
2024-05-09T02:29:48.924Z,1.90
2024-05-09T02:32:51.593Z,1.88
2024-05-09T02:35:54.193Z,1.92
2024-05-09T02:38:56.747Z,1.52
2024-05-09T02:41:59.310Z,2.40
2024-05-09T02:45:02.140Z,1.60
2024-05-09T02:48:05.347Z,1.77
2024-05-09T02:51:08.246Z,2.05
2024-05-09T02:54:12.602Z,1.63
2024-05-09T02:57:15.162Z,1.57
2024-05-09T03:00:22.830Z,1.88
2024-05-09T03:03:31.758Z,1.75
2024-05-09T03:06:34.481Z,2.00
2024-05-09T03:09:36.992Z,1.55
2024-05-09T03:12:39.594Z,2.10
2024-05-09T03:15:42.833Z,1.70
2024-05-09T03:18:45.950Z,1.52
2024-05-09T03:21:48.521Z,1.40
2024-05-09T03:24:51.160Z,2.25
2024-05-09T03:27:53.837Z,2.77
2024-05-09T03:30:56.429Z,2.75
2024-05-09T03:33:59.135Z,2.15
2024-05-09T03:37:01.811Z,1.80
2024-05-09T03:40:09.190Z,1.50
2024-05-09T03:43:14.672Z,1.57
2024-05-09T03:46:17.450Z,1.98
2024-05-09T03:49:20.222Z,2.20
2024-05-09T03:52:22.803Z,1.65
2024-05-09T03:55:25.361Z,2.05
2024-05-09T03:58:27.894Z,2.30
2024-05-09T04:01:30.532Z,1.70
2024-05-09T04:04:33.320Z,3.60
2024-05-09T04:07:37.448Z,2.38
2024-05-09T04:10:40.709Z,5.72
2024-05-09T04:13:43.522Z,4.47
2024-05-09T04:16:46.124Z,3.60
2024-05-09T04:19:48.682Z,3.42
2024-05-09T04:22:52.102Z,3.72
2024-05-09T04:25:54.900Z,3.75
2024-05-09T04:28:57.468Z,2.30
2024-05-09T04:32:00.129Z,2.67
2024-05-09T04:35:03.067Z,3.70
2024-05-09T04:38:06.245Z,2.25
2024-05-09T04:41:09.078Z,6.18
2024-05-09T04:44:11.681Z,3.57
2024-05-09T04:47:14.381Z,3.55
2024-05-09T04:50:24.676Z,3.80
2024-05-09T04:53:32.130Z,2.50
2024-05-09T04:56:34.799Z,3.63
2024-05-09T04:59:37.451Z,1.97
2024-05-09T05:02:40.200Z,3.15
2024-05-09T05:05:44.580Z,4.10
2024-05-09T05:08:48.100Z,5.05
2024-05-09T05:11:50.765Z,5.20
2024-05-09T05:14:53.495Z,3.30
2024-05-09T05:17:58.243Z,3.22
2024-05-09T05:21:01.271Z,6.35
2024-05-09T05:24:04.106Z,7.90
2024-05-09T05:27:06.769Z,6.93
2024-05-09T05:30:14.772Z,5.03
2024-05-09T05:33:23.738Z,8.95
2024-05-09T05:36:26.495Z,5.63
2024-05-09T05:39:29.247Z,4.45
2024-05-09T05:42:31.793Z,8.20
2024-05-09T05:45:34.497Z,6.53
2024-05-09T05:48:37.172Z,7.55
2024-05-09T05:51:39.829Z,4.10
2024-05-09T05:54:42.359Z,5.53
2024-05-09T05:57:45.441Z,5.13
2024-05-09T06:00:48.269Z,6.90
2024-05-09T06:03:51.494Z,6.72
2024-05-09T06:06:54.500Z,8.07
2024-05-09T06:09:57.039Z,8.20
2024-05-09T06:12:59.581Z,8.55
2024-05-09T06:16:04.843Z,9.07
2024-05-09T06:19:07.411Z,8.57
2024-05-09T06:22:11.128Z,5.95
2024-05-09T06:25:14.051Z,9.75
2024-05-09T06:28:16.568Z,15.75
2024-05-09T06:31:21.166Z,7.43
2024-05-09T06:34:24.319Z,6.70
2024-05-09T06:37:26.967Z,11.00
2024-05-09T06:40:36.914Z,7.63
2024-05-09T06:43:42.354Z,10.20
2024-05-09T06:46:46.689Z,3.60
2024-05-09T06:49:52.538Z,8.25
2024-05-09T06:52:55.250Z,9.98
2024-05-09T06:55:58.358Z,8.27
2024-05-09T06:59:01.070Z,12.82
2024-05-09T07:02:04.833Z,9.20
2024-05-09T07:05:07.660Z,9.73
2024-05-09T07:08:10.509Z,5.55
2024-05-09T07:11:13.305Z,5.88
2024-05-09T07:14:15.907Z,7.20
2024-05-09T07:17:18.742Z,9.10
2024-05-09T07:20:32.168Z,5.28
2024-05-09T07:23:37.583Z,6.35
2024-05-09T07:26:40.349Z,3.83
2024-05-09T07:29:43.202Z,5.25
2024-05-09T07:32:46.214Z,8.43
2024-05-09T07:35:49.099Z,5.57
2024-05-09T07:38:51.880Z,6.88
2024-05-09T07:41:57.513Z,6.97
2024-05-09T07:45:14.914Z,8.13
2024-05-09T07:54:34.528Z,11.68
2024-05-09T07:57:37.482Z,7.60
2024-05-09T08:00:40.373Z,7.53
2024-05-09T08:03:43.198Z,9.53
2024-05-09T08:06:46.176Z,7.97
2024-05-09T08:09:49.056Z,5.78
2024-05-09T08:12:54.057Z,10.20
2024-05-09T08:15:56.764Z,11.57
2024-05-09T08:18:59.526Z,6.60
2024-05-09T08:22:07.136Z,10.10
2024-05-09T08:25:11.895Z,9.48
2024-05-09T08:28:16.470Z,13.05
2024-05-09T08:31:21.991Z,12.35
2024-05-09T08:34:25.709Z,9.33
2024-05-09T08:37:32.861Z,8.73
2024-05-09T08:40:39.607Z,17.42
2024-05-09T08:43:44.283Z,35.25
2024-05-09T08:46:48.773Z,29.63
2024-05-09T08:49:51.964Z,31.33
2024-05-09T08:52:54.643Z,17.77
2024-05-09T08:56:01.508Z,21.00
2024-05-09T08:59:06.840Z,15.40
2024-05-09T09:02:12.449Z,17.17
2024-05-09T09:05:21.472Z,14.27
2024-05-09T09:08:24.828Z,18.13
2024-05-09T09:11:27.641Z,9.70
2024-05-09T09:14:30.263Z,14.20
2024-05-09T09:17:33.095Z,16.63
2024-05-09T09:20:37.335Z,16.13
2024-05-09T09:23:40.083Z,15.25
2024-05-09T09:26:45.128Z,6.20
2024-05-09T09:29:49.620Z,6.88
2024-05-09T09:32:52.546Z,9.98
2024-05-09T09:35:55.221Z,5.13
2024-05-09T09:38:57.930Z,11.75
2024-05-09T09:42:01.249Z,10.88
2024-05-09T09:45:07.375Z,3.60
2024-05-09T09:48:10.925Z,6.43
2024-05-09T09:51:14.058Z,7.43
2024-05-09T09:54:18.042Z,4.43
2024-05-09T09:57:20.696Z,7.20
2024-05-09T10:00:29.947Z,6.30
2024-05-09T10:03:35.742Z,6.38
2024-05-09T10:06:44.089Z,8.30
2024-05-09T10:09:47.149Z,13.93
2024-05-09T10:13:08.863Z,9.60
2024-05-09T10:16:20.643Z,10.38
2024-05-09T10:19:27.330Z,7.78
2024-05-09T10:22:31.027Z,8.57
2024-05-09T10:25:36.527Z,10.80
2024-05-09T10:28:44.082Z,6.70
2024-05-09T10:31:47.519Z,6.00
2024-05-09T10:35:15.085Z,9.38
2024-05-09T10:38:18.081Z,8.47
2024-05-09T10:41:25.289Z,13.50
2024-05-09T10:44:28.613Z,7.85
2024-05-09T10:47:31.523Z,7.03
2024-05-09T10:50:34.761Z,11.48
2024-05-09T10:53:45.033Z,7.67
2024-05-09T10:56:56.154Z,6.70
2024-05-09T10:59:59.763Z,6.07
2024-05-09T11:03:02.387Z,6.32
2024-05-09T11:06:05.798Z,10.27
2024-05-09T11:09:08.917Z,7.27
2024-05-09T11:12:14.306Z,7.75
2024-05-09T11:15:17.603Z,5.85
2024-05-09T11:18:25.889Z,8.57
2024-05-09T11:21:29.687Z,6.82
2024-05-09T11:24:33.201Z,5.50
2024-05-09T11:27:36.041Z,6.38
2024-05-09T11:30:38.724Z,8.65
2024-05-09T11:33:44.053Z,4.28
2024-05-09T11:36:47.374Z,4.78
2024-05-09T11:39:50.159Z,12.33
2024-05-09T11:42:53.383Z,9.65
2024-05-09T11:45:59.738Z,11.13
2024-05-09T11:49:02.746Z,4.80
2024-05-09T11:52:05.615Z,6.90
2024-05-09T11:55:08.920Z,5.70
2024-05-09T11:58:17.532Z,8.10
2024-05-09T12:01:22.169Z,7.72
2024-05-09T12:04:26.453Z,6.20
2024-05-09T12:07:29.273Z,2.80
2024-05-09T12:10:34.475Z,7.33
2024-05-09T12:13:38.531Z,10.48
2024-05-09T12:16:41.410Z,10.82
2024-05-09T12:19:44.156Z,4.32
2024-05-09T12:22:47.651Z,4.82
2024-05-09T12:25:50.229Z,5.97
2024-05-09T12:28:52.866Z,4.00
2024-05-09T12:31:55.550Z,7.60
2024-05-09T12:34:58.129Z,8.75
2024-05-09T12:38:00.839Z,9.57
2024-05-09T12:41:03.501Z,6.27
2024-05-09T12:44:06.194Z,4.68
2024-05-09T12:47:08.738Z,7.75
2024-05-09T12:50:21.828Z,2.83
2024-05-09T12:53:27.953Z,5.03
2024-05-09T12:56:30.767Z,7.30
2024-05-09T12:59:33.362Z,8.25
2024-05-09T13:02:36.285Z,3.78
2024-05-09T13:05:41.660Z,8.30
2024-05-09T13:08:44.517Z,2.67
2024-05-09T13:11:47.142Z,2.40
2024-05-09T13:14:49.768Z,7.00
2024-05-09T13:17:52.911Z,7.43
2024-05-09T13:20:56.198Z,4.07
2024-05-09T13:24:00.343Z,4.28
2024-05-09T13:27:03.190Z,4.03
2024-05-09T13:30:11.857Z,5.03
2024-05-09T13:33:17.380Z,3.75
2024-05-09T13:36:20.032Z,3.45
2024-05-09T13:39:22.593Z,5.13
2024-05-09T13:42:25.296Z,2.80
2024-05-09T13:45:27.868Z,3.28
2024-05-09T13:48:30.746Z,3.95
2024-05-09T13:51:33.388Z,5.55
2024-05-09T13:54:38.490Z,3.47
2024-05-09T13:57:41.153Z,4.40
2024-05-09T14:00:48.188Z,5.05
2024-05-09T14:03:52.015Z,8.13
2024-05-09T14:06:54.870Z,4.13
2024-05-09T14:09:57.499Z,4.25
2024-05-09T14:13:01.271Z,3.97
2024-05-09T14:16:04.509Z,3.47
2024-05-09T14:19:07.215Z,7.35
2024-05-09T14:22:10.104Z,3.50
2024-05-09T14:25:13.165Z,5.82
2024-05-09T14:28:15.896Z,6.17
2024-05-09T14:31:18.490Z,5.00
2024-05-09T14:34:21.365Z,3.88
2024-05-09T14:37:24.068Z,5.47
2024-05-09T14:40:37.033Z,2.38
2024-05-09T14:43:46.696Z,3.30
2024-05-09T14:46:49.426Z,4.18
2024-05-09T14:49:52.136Z,5.45
2024-05-09T14:52:54.777Z,2.22
2024-05-09T14:55:57.870Z,2.97
2024-05-09T14:59:00.533Z,3.10
2024-05-09T15:02:05.950Z,3.15
2024-05-09T15:05:11.142Z,4.50
2024-05-09T15:08:13.893Z,4.28
2024-05-09T15:11:16.500Z,3.90
2024-05-09T15:14:19.105Z,4.30
2024-05-09T15:17:21.705Z,14.02
2024-05-09T15:20:31.575Z,5.93
2024-05-09T15:23:38.140Z,5.63
2024-05-09T15:26:40.746Z,7.65
2024-05-09T15:29:43.360Z,5.43
2024-05-09T15:32:46.120Z,3.92
2024-05-09T15:35:51.105Z,4.60
2024-05-09T15:38:55.395Z,4.20
2024-05-09T15:41:57.982Z,2.95
2024-05-09T15:45:01.508Z,5.20
2024-05-09T15:48:05.588Z,4.68
2024-05-09T15:51:08.400Z,4.15
2024-05-09T15:54:11.308Z,3.75
2024-05-09T15:57:14.015Z,2.42
2024-05-09T16:00:24.918Z,4.30
2024-05-09T16:03:36.608Z,3.85
2024-05-09T16:06:39.779Z,2.90
2024-05-09T16:09:42.424Z,4.28
2024-05-09T16:12:45.122Z,4.60
2024-05-09T16:15:47.965Z,6.33
2024-05-09T16:18:50.824Z,4.57
2024-05-09T16:21:53.438Z,3.65
2024-05-09T16:24:56.213Z,3.25
2024-05-09T16:27:59.106Z,3.70
2024-05-09T16:31:02.546Z,3.07
2024-05-09T16:34:05.365Z,3.25
2024-05-09T16:37:10.403Z,3.03
2024-05-09T16:40:22.007Z,4.78
2024-05-09T16:43:32.772Z,4.22
2024-05-09T16:46:35.421Z,6.30
2024-05-09T16:49:38.018Z,2.72
2024-05-09T16:52:40.579Z,5.97
2024-05-09T16:55:43.193Z,3.03
2024-05-09T16:58:45.907Z,4.72
2024-05-09T17:01:48.564Z,3.57
2024-05-09T17:04:51.416Z,4.03
2024-05-09T17:07:54.072Z,1.73
2024-05-09T17:10:56.767Z,4.13
2024-05-09T17:13:59.888Z,3.50
2024-05-09T17:17:02.730Z,2.60
2024-05-09T17:20:18.767Z,4.70
2024-05-09T17:23:29.229Z,3.92
2024-05-09T17:26:32.585Z,4.03
2024-05-09T17:29:35.378Z,2.25
2024-05-09T17:32:38.037Z,3.97
2024-05-09T17:35:40.812Z,2.08
2024-05-09T17:38:46.679Z,2.83
2024-05-09T17:41:50.247Z,1.80
2024-05-09T17:44:53.497Z,3.08
2024-05-09T17:47:56.285Z,2.93
2024-05-09T17:50:58.904Z,1.40
2024-05-09T17:54:01.536Z,3.80
2024-05-09T17:57:04.394Z,1.58
2024-05-09T18:00:11.550Z,1.73
2024-05-09T18:03:17.454Z,3.20
2024-05-09T18:06:20.186Z,3.42
2024-05-09T18:09:22.788Z,1.98
2024-05-09T18:12:25.465Z,2.67
2024-05-09T18:15:28.059Z,5.10
2024-05-09T18:18:30.729Z,2.20
2024-05-09T18:21:33.596Z,3.15
2024-05-09T18:24:36.263Z,2.63
2024-05-09T18:27:38.966Z,4.22
2024-05-09T18:30:41.888Z,2.00
2024-05-09T18:33:44.612Z,2.60
2024-05-09T18:36:47.809Z,1.70
2024-05-09T18:39:50.560Z,3.67
2024-05-09T18:42:53.171Z,2.65
2024-05-09T18:45:55.796Z,3.38
2024-05-09T18:48:58.532Z,1.93
2024-05-09T18:52:01.355Z,1.23
2024-05-09T18:55:05.505Z,2.20
2024-05-09T18:58:08.580Z,2.05
2024-05-09T19:01:11.351Z,3.20
2024-05-09T19:04:18.323Z,2.80
2024-05-09T19:07:21.355Z,1.80
2024-05-09T19:10:28.832Z,3.08
2024-05-09T19:13:36.338Z,2.70
2024-05-09T19:16:39.267Z,1.77
2024-05-09T19:19:41.871Z,1.83
2024-05-09T19:22:44.634Z,1.60
2024-05-09T19:25:47.468Z,1.08
2024-05-09T19:28:50.469Z,3.15
2024-05-09T19:31:53.219Z,2.08
2024-05-09T19:34:55.855Z,2.93
2024-05-09T19:37:58.750Z,3.85
2024-05-09T19:41:01.342Z,2.25
2024-05-09T19:44:04.279Z,2.38
2024-05-09T19:47:07.404Z,2.35
2024-05-09T19:50:14.086Z,3.83
2024-05-09T19:53:22.220Z,2.38
2024-05-09T19:56:24.966Z,3.15
2024-05-09T19:59:27.725Z,1.25
2024-05-09T20:02:30.623Z,2.25
2024-05-09T20:05:34.714Z,2.10
2024-05-09T20:08:37.648Z,2.28
2024-05-09T20:11:40.306Z,2.53
2024-05-09T20:14:43.192Z,1.38
2024-05-09T20:17:46.206Z,1.92
2024-05-09T20:20:51.646Z,1.67
2024-05-09T20:23:56.410Z,4.28
2024-05-09T20:26:59.146Z,2.40
2024-05-09T20:30:01.879Z,2.25
2024-05-09T20:33:07.371Z,2.25
2024-05-09T20:36:11.531Z,2.97
2024-05-09T20:39:14.101Z,2.75
2024-05-09T20:42:16.773Z,1.85
2024-05-09T20:45:19.626Z,3.53
2024-05-09T20:48:22.398Z,2.78
2024-05-09T20:51:26.057Z,1.83
2024-05-09T20:54:29.371Z,2.10
2024-05-09T20:57:32.180Z,1.70
2024-05-09T21:00:40.032Z,4.35
2024-05-09T21:03:47.527Z,1.95
2024-05-09T21:06:50.210Z,3.57
2024-05-09T21:09:52.830Z,1.85
2024-05-09T21:12:55.475Z,2.40
2024-05-09T21:15:58.152Z,2.47
2024-05-09T21:19:00.911Z,2.53
2024-05-09T21:22:03.621Z,1.90
2024-05-09T21:25:06.295Z,2.15
2024-05-09T21:28:08.932Z,3.05
2024-05-09T21:31:11.531Z,2.85
2024-05-09T21:34:14.147Z,1.42
2024-05-09T21:37:16.848Z,2.27
2024-05-09T21:40:27.351Z,2.05
2024-05-09T21:43:38.015Z,2.42
2024-05-09T21:46:40.842Z,2.70
2024-05-09T21:49:43.427Z,2.00
2024-05-09T21:52:45.990Z,2.23
2024-05-09T21:55:48.512Z,1.38
2024-05-09T21:58:51.099Z,1.77
2024-05-09T22:01:53.704Z,2.67
2024-05-09T22:04:56.478Z,2.28
2024-05-09T22:07:59.081Z,1.20
2024-05-09T22:11:01.729Z,1.80
2024-05-09T22:14:04.306Z,1.65
2024-05-09T22:17:06.907Z,1.80
2024-05-09T22:20:17.996Z,2.42
2024-05-09T22:23:24.626Z,1.20
2024-05-09T22:26:27.175Z,1.13
2024-05-09T22:29:29.732Z,1.45
2024-05-09T22:32:32.320Z,1.55
2024-05-09T22:35:34.971Z,1.25
2024-05-09T22:38:37.523Z,1.10
2024-05-09T22:41:41.089Z,1.73
2024-05-09T22:44:43.610Z,1.42
2024-05-09T22:47:46.170Z,1.73
2024-05-09T22:50:48.788Z,4.70
2024-05-09T22:53:51.340Z,2.63
2024-05-09T22:56:53.839Z,1.52
2024-05-09T22:59:56.364Z,1.23
2024-05-09T23:03:02.301Z,1.45
2024-05-09T23:06:06.436Z,1.40
2024-05-09T23:09:09.992Z,1.43
2024-05-09T23:12:17.653Z,1.65
2024-05-09T23:15:20.220Z,1.20
2024-05-09T23:18:22.931Z,1.95
2024-05-09T23:21:25.597Z,1.00
2024-05-09T23:24:28.139Z,2.30
2024-05-09T23:27:30.664Z,1.63
2024-05-09T23:30:38.176Z,1.33
2024-05-09T23:33:47.114Z,2.10
2024-05-09T23:36:49.910Z,2.35
2024-05-09T23:39:53.451Z,2.33
2024-05-09T23:42:56.064Z,1.40
2024-05-09T23:45:58.659Z,2.33
2024-05-09T23:49:01.313Z,1.48
2024-05-09T23:52:04.342Z,1.35
2024-05-09T23:55:09.697Z,2.73
2024-05-09T23:58:12.368Z,2.67
